sensor_id;sensor_type;location;lat;lon;timestamp;temperature;humidity
51793;DHT22;37850;53.178;6.376;2023-08-21T00:00:04;16.80;99.90
51793;DHT22;37850;53.178;6.376;2023-08-21T00:02:30;16.80;99.90
51793;DHT22;37850;53.178;6.376;2023-08-21T00:04:56;16.70;99.90
51793;DHT22;37850;53.178;6.376;2023-08-21T00:07:22;16.70;99.90
51793;DHT22;37850;53.178;6.376;2023-08-21T00:09:48;16.70;99.90
51793;DHT22;37850;53.178;6.376;2023-08-21T00:12:14;16.60;99.90
51793;DHT22;37850;53.178;6.376;2023-08-21T00:14:40;16.60;99.90
51793;DHT22;37850;53.178;6.376;2023-08-21T00:17:05;16.60;99.90
51793;DHT22;37850;53.178;6.376;2023-08-21T00:19:32;16.50;99.90
51793;DHT22;37850;53.178;6.376;2023-08-21T00:21:58;16.50;99.90
51793;DHT22;37850;53.178;6.376;2023-08-21T00:24:24;16.50;99.90
51793;DHT22;37850;53.178;6.376;2023-08-21T00:26:49;16.40;99.90
51793;DHT22;37850;53.178;6.376;2023-08-21T00:29:15;16.40;99.90
51793;DHT22;37850;53.178;6.376;2023-08-21T00:31:41;16.40;99.90
51793;DHT22;37850;53.178;6.376;2023-08-21T00:34:06;16.40;99.90
51793;DHT22;37850;53.178;6.376;2023-08-21T00:36:32;16.30;99.90
51793;DHT22;37850;53.178;6.376;2023-08-21T00:38:58;16.30;99.90
51793;DHT22;37850;53.178;6.376;2023-08-21T00:41:24;16.30;99.90
51793;DHT22;37850;53.178;6.376;2023-08-21T00:43:50;16.30;99.90
51793;DHT22;37850;53.178;6.376;2023-08-21T00:46:15;16.30;99.90
51793;DHT22;37850;53.178;6.376;2023-08-21T00:48:43;16.20;99.90
51793;DHT22;37850;53.178;6.376;2023-08-21T00:51:09;16.20;99.90
51793;DHT22;37850;53.178;6.376;2023-08-21T00:53:36;16.20;99.90
51793;DHT22;37850;53.178;6.376;2023-08-21T00:56:02;16.10;99.90
51793;DHT22;37850;53.178;6.376;2023-08-21T00:58:28;16.10;99.90
51793;DHT22;37850;53.178;6.376;2023-08-21T01:00:54;16.10;99.90
51793;DHT22;37850;53.178;6.376;2023-08-21T01:03:20;16.00;99.90
51793;DHT22;37850;53.178;6.376;2023-08-21T01:05:46;16.00;99.90
51793;DHT22;37850;53.178;6.376;2023-08-21T01:08:24;16.00;99.90
51793;DHT22;37850;53.178;6.376;2023-08-21T01:16:15;15.90;99.90
51793;DHT22;37850;53.178;6.376;2023-08-21T01:18:43;15.90;99.90
51793;DHT22;37850;53.178;6.376;2023-08-21T01:21:11;15.80;99.90
51793;DHT22;37850;53.178;6.376;2023-08-21T01:23:38;15.80;99.90
51793;DHT22;37850;53.178;6.376;2023-08-21T01:26:04;15.80;99.90
51793;DHT22;37850;53.178;6.376;2023-08-21T01:28:31;15.70;99.90
51793;DHT22;37850;53.178;6.376;2023-08-21T01:33:30;15.70;99.90
51793;DHT22;37850;53.178;6.376;2023-08-21T01:36:02;15.70;99.90
51793;DHT22;37850;53.178;6.376;2023-08-21T01:38:31;15.70;99.90
51793;DHT22;37850;53.178;6.376;2023-08-21T01:40:57;15.70;99.90
51793;DHT22;37850;53.178;6.376;2023-08-21T01:43:24;15.60;99.90
51793;DHT22;37850;53.178;6.376;2023-08-21T01:45:49;15.60;99.90
51793;DHT22;37850;53.178;6.376;2023-08-21T01:48:15;15.60;99.90
51793;DHT22;37850;53.178;6.376;2023-08-21T01:50:41;15.60;99.90
51793;DHT22;37850;53.178;6.376;2023-08-21T01:53:07;15.50;99.90
51793;DHT22;37850;53.178;6.376;2023-08-21T01:55:32;15.60;99.90
51793;DHT22;37850;53.178;6.376;2023-08-21T01:57:58;15.50;99.90
51793;DHT22;37850;53.178;6.376;2023-08-21T02:00:24;15.50;99.90
51793;DHT22;37850;53.178;6.376;2023-08-21T02:02:49;15.40;99.90
51793;DHT22;37850;53.178;6.376;2023-08-21T02:05:15;15.40;99.90
51793;DHT22;37850;53.178;6.376;2023-08-21T02:07:41;15.30;99.90
51793;DHT22;37850;53.178;6.376;2023-08-21T02:10:07;15.40;99.90
51793;DHT22;37850;53.178;6.376;2023-08-21T02:12:33;15.30;99.90
51793;DHT22;37850;53.178;6.376;2023-08-21T02:14:58;15.30;99.90
51793;DHT22;37850;53.178;6.376;2023-08-21T02:17:27;15.30;99.90
51793;DHT22;37850;53.178;6.376;2023-08-21T02:19:53;15.30;99.90
51793;DHT22;37850;53.178;6.376;2023-08-21T02:22:19;15.30;99.90
51793;DHT22;37850;53.178;6.376;2023-08-21T02:24:44;15.30;99.90
51793;DHT22;37850;53.178;6.376;2023-08-21T02:27:10;15.10;99.90
51793;DHT22;37850;53.178;6.376;2023-08-21T02:29:36;15.20;99.90
51793;DHT22;37850;53.178;6.376;2023-08-21T02:32:01;15.20;99.90
51793;DHT22;37850;53.178;6.376;2023-08-21T02:34:27;15.20;99.90
51793;DHT22;37850;53.178;6.376;2023-08-21T02:36:53;15.20;99.90
51793;DHT22;37850;53.178;6.376;2023-08-21T02:39:18;15.20;99.90
51793;DHT22;37850;53.178;6.376;2023-08-21T02:41:44;15.10;99.90
51793;DHT22;37850;53.178;6.376;2023-08-21T02:44:10;15.10;99.90
51793;DHT22;37850;53.178;6.376;2023-08-21T02:46:36;15.10;99.90
51793;DHT22;37850;53.178;6.376;2023-08-21T02:49:02;15.00;99.90
51793;DHT22;37850;53.178;6.376;2023-08-21T02:51:28;15.00;99.90
51793;DHT22;37850;53.178;6.376;2023-08-21T02:53:53;15.00;99.90
51793;DHT22;37850;53.178;6.376;2023-08-21T02:56:19;14.90;99.90
51793;DHT22;37850;53.178;6.376;2023-08-21T02:58:45;14.90;99.90
51793;DHT22;37850;53.178;6.376;2023-08-21T03:01:11;14.90;99.90
51793;DHT22;37850;53.178;6.376;2023-08-21T03:03:37;14.80;99.90
51793;DHT22;37850;53.178;6.376;2023-08-21T03:06:03;14.80;99.90
51793;DHT22;37850;53.178;6.376;2023-08-21T03:08:28;14.80;99.90
51793;DHT22;37850;53.178;6.376;2023-08-21T03:10:54;14.80;99.90
51793;DHT22;37850;53.178;6.376;2023-08-21T03:13:20;14.70;99.90
51793;DHT22;37850;53.178;6.376;2023-08-21T03:15:45;14.70;99.90
51793;DHT22;37850;53.178;6.376;2023-08-21T03:18:11;14.70;99.90
51793;DHT22;37850;53.178;6.376;2023-08-21T03:20:37;14.70;99.90
51793;DHT22;37850;53.178;6.376;2023-08-21T03:23:03;14.70;99.90
51793;DHT22;37850;53.178;6.376;2023-08-21T03:25:28;14.70;99.90
51793;DHT22;37850;53.178;6.376;2023-08-21T03:27:54;14.70;99.90
51793;DHT22;37850;53.178;6.376;2023-08-21T03:30:20;14.60;99.90
51793;DHT22;37850;53.178;6.376;2023-08-21T03:32:47;14.60;99.90
51793;DHT22;37850;53.178;6.376;2023-08-21T03:35:12;14.60;99.90
51793;DHT22;37850;53.178;6.376;2023-08-21T03:37:38;14.60;99.90
51793;DHT22;37850;53.178;6.376;2023-08-21T03:40:04;14.60;99.90
51793;DHT22;37850;53.178;6.376;2023-08-21T03:42:30;14.60;99.90
51793;DHT22;37850;53.178;6.376;2023-08-21T03:44:56;14.60;99.90
51793;DHT22;37850;53.178;6.376;2023-08-21T03:47:21;14.60;99.90
51793;DHT22;37850;53.178;6.376;2023-08-21T03:49:47;14.60;99.90
51793;DHT22;37850;53.178;6.376;2023-08-21T03:52:14;14.60;99.90
51793;DHT22;37850;53.178;6.376;2023-08-21T03:54:39;14.60;99.90
51793;DHT22;37850;53.178;6.376;2023-08-21T03:57:05;14.60;99.90
51793;DHT22;37850;53.178;6.376;2023-08-21T03:59:31;14.60;99.90
51793;DHT22;37850;53.178;6.376;2023-08-21T04:01:57;14.50;99.90
51793;DHT22;37850;53.178;6.376;2023-08-21T04:04:22;14.50;99.90
51793;DHT22;37850;53.178;6.376;2023-08-21T04:06:48;14.50;99.90
51793;DHT22;37850;53.178;6.376;2023-08-21T04:09:14;14.50;99.90
51793;DHT22;37850;53.178;6.376;2023-08-21T04:11:40;14.50;99.90
51793;DHT22;37850;53.178;6.376;2023-08-21T04:14:06;14.50;99.90
51793;DHT22;37850;53.178;6.376;2023-08-21T04:16:32;14.50;99.90
51793;DHT22;37850;53.178;6.376;2023-08-21T04:18:58;14.50;99.90
51793;DHT22;37850;53.178;6.376;2023-08-21T04:21:24;14.50;99.90
51793;DHT22;37850;53.178;6.376;2023-08-21T04:23:50;14.40;99.90
51793;DHT22;37850;53.178;6.376;2023-08-21T04:26:15;14.40;99.90
51793;DHT22;37850;53.178;6.376;2023-08-21T04:28:41;14.50;99.90
51793;DHT22;37850;53.178;6.376;2023-08-21T04:31:07;14.40;99.90
51793;DHT22;37850;53.178;6.376;2023-08-21T04:33:33;14.40;99.90
51793;DHT22;37850;53.178;6.376;2023-08-21T04:35:59;14.40;99.90
51793;DHT22;37850;53.178;6.376;2023-08-21T04:38:28;14.40;99.90
51793;DHT22;37850;53.178;6.376;2023-08-21T04:40:55;14.40;99.90
51793;DHT22;37850;53.178;6.376;2023-08-21T04:43:21;14.40;99.90
51793;DHT22;37850;53.178;6.376;2023-08-21T04:48:14;14.40;99.90
51793;DHT22;37850;53.178;6.376;2023-08-21T04:50:39;14.40;99.90
51793;DHT22;37850;53.178;6.376;2023-08-21T04:53:05;14.40;99.90
51793;DHT22;37850;53.178;6.376;2023-08-21T04:55:31;14.40;99.90
51793;DHT22;37850;53.178;6.376;2023-08-21T04:57:57;14.40;99.90
51793;DHT22;37850;53.178;6.376;2023-08-21T05:00:23;14.40;99.90
51793;DHT22;37850;53.178;6.376;2023-08-21T05:02:48;14.40;99.90
51793;DHT22;37850;53.178;6.376;2023-08-21T05:05:14;14.40;99.90
51793;DHT22;37850;53.178;6.376;2023-08-21T05:07:40;14.40;99.90
51793;DHT22;37850;53.178;6.376;2023-08-21T05:10:06;14.40;99.90
51793;DHT22;37850;53.178;6.376;2023-08-21T05:12:32;14.40;99.90
51793;DHT22;37850;53.178;6.376;2023-08-21T05:14:58;14.50;99.90
51793;DHT22;37850;53.178;6.376;2023-08-21T05:17:24;14.50;99.90
51793;DHT22;37850;53.178;6.376;2023-08-21T05:19:51;14.50;99.90
51793;DHT22;37850;53.178;6.376;2023-08-21T05:22:16;14.50;99.90
51793;DHT22;37850;53.178;6.376;2023-08-21T05:24:42;14.50;99.90
51793;DHT22;37850;53.178;6.376;2023-08-21T05:27:08;14.50;99.90
51793;DHT22;37850;53.178;6.376;2023-08-21T05:29:33;14.50;99.90
51793;DHT22;37850;53.178;6.376;2023-08-21T05:32:00;14.60;99.90
51793;DHT22;37850;53.178;6.376;2023-08-21T05:34:26;14.60;99.90
51793;DHT22;37850;53.178;6.376;2023-08-21T05:36:52;14.60;99.90
51793;DHT22;37850;53.178;6.376;2023-08-21T05:39:20;14.60;99.90
51793;DHT22;37850;53.178;6.376;2023-08-21T05:41:46;14.70;99.90
51793;DHT22;37850;53.178;6.376;2023-08-21T05:44:12;14.70;99.90
51793;DHT22;37850;53.178;6.376;2023-08-21T05:46:37;14.70;99.90
51793;DHT22;37850;53.178;6.376;2023-08-21T05:49:03;14.70;99.90
51793;DHT22;37850;53.178;6.376;2023-08-21T05:51:33;14.70;99.90
51793;DHT22;37850;53.178;6.376;2023-08-21T05:53:59;14.80;99.90
51793;DHT22;37850;53.178;6.376;2023-08-21T05:56:28;14.80;99.90
51793;DHT22;37850;53.178;6.376;2023-08-21T05:58:54;14.90;99.90
51793;DHT22;37850;53.178;6.376;2023-08-21T06:01:19;14.90;99.90
51793;DHT22;37850;53.178;6.376;2023-08-21T06:03:45;14.90;99.90
51793;DHT22;37850;53.178;6.376;2023-08-21T06:06:11;15.00;99.90
51793;DHT22;37850;53.178;6.376;2023-08-21T06:08:37;15.00;99.90
51793;DHT22;37850;53.178;6.376;2023-08-21T06:11:02;15.10;99.90
51793;DHT22;37850;53.178;6.376;2023-08-21T06:13:28;15.10;99.90
51793;DHT22;37850;53.178;6.376;2023-08-21T06:15:54;15.20;99.90
51793;DHT22;37850;53.178;6.376;2023-08-21T06:18:20;15.20;99.90
51793;DHT22;37850;53.178;6.376;2023-08-21T06:20:45;15.30;99.90
51793;DHT22;37850;53.178;6.376;2023-08-21T06:23:12;15.30;99.90
51793;DHT22;37850;53.178;6.376;2023-08-21T06:25:38;15.40;99.90
51793;DHT22;37850;53.178;6.376;2023-08-21T06:28:04;15.50;99.90
51793;DHT22;37850;53.178;6.376;2023-08-21T06:30:30;15.50;99.90
51793;DHT22;37850;53.178;6.376;2023-08-21T06:32:56;15.60;99.90
51793;DHT22;37850;53.178;6.376;2023-08-21T06:35:22;15.70;99.90
51793;DHT22;37850;53.178;6.376;2023-08-21T06:37:48;15.70;99.90
51793;DHT22;37850;53.178;6.376;2023-08-21T06:40:14;15.70;99.90
51793;DHT22;37850;53.178;6.376;2023-08-21T06:42:39;15.80;99.90
51793;DHT22;37850;53.178;6.376;2023-08-21T06:45:05;15.90;99.90
51793;DHT22;37850;53.178;6.376;2023-08-21T06:47:32;15.90;99.90
51793;DHT22;37850;53.178;6.376;2023-08-21T06:49:57;16.00;99.90
51793;DHT22;37850;53.178;6.376;2023-08-21T06:52:26;16.10;99.90
51793;DHT22;37850;53.178;6.376;2023-08-21T06:54:51;16.20;99.90
51793;DHT22;37850;53.178;6.376;2023-08-21T06:57:17;16.20;99.90
51793;DHT22;37850;53.178;6.376;2023-08-21T06:59:43;16.30;99.90
51793;DHT22;37850;53.178;6.376;2023-08-21T07:02:09;16.40;99.90
51793;DHT22;37850;53.178;6.376;2023-08-21T07:04:35;16.40;99.90
51793;DHT22;37850;53.178;6.376;2023-08-21T07:07:01;16.50;99.90
51793;DHT22;37850;53.178;6.376;2023-08-21T07:09:26;16.60;99.90
51793;DHT22;37850;53.178;6.376;2023-08-21T07:11:52;16.60;99.90
51793;DHT22;37850;53.178;6.376;2023-08-21T07:14:19;16.70;99.90
51793;DHT22;37850;53.178;6.376;2023-08-21T07:16:45;16.80;99.90
51793;DHT22;37850;53.178;6.376;2023-08-21T07:19:10;16.90;99.90
51793;DHT22;37850;53.178;6.376;2023-08-21T07:21:36;17.00;99.90
51793;DHT22;37850;53.178;6.376;2023-08-21T07:24:04;17.00;99.90
51793;DHT22;37850;53.178;6.376;2023-08-21T07:26:30;17.10;99.90
51793;DHT22;37850;53.178;6.376;2023-08-21T07:28:59;17.20;99.90
51793;DHT22;37850;53.178;6.376;2023-08-21T07:31:24;17.40;99.90
51793;DHT22;37850;53.178;6.376;2023-08-21T07:33:50;17.60;99.90
51793;DHT22;37850;53.178;6.376;2023-08-21T07:36:16;17.70;99.90
51793;DHT22;37850;53.178;6.376;2023-08-21T07:38:44;17.80;99.90
51793;DHT22;37850;53.178;6.376;2023-08-21T07:41:11;18.00;99.90
51793;DHT22;37850;53.178;6.376;2023-08-21T07:43:39;18.10;99.90
51793;DHT22;37850;53.178;6.376;2023-08-21T07:46:07;18.30;99.90
51793;DHT22;37850;53.178;6.376;2023-08-21T07:48:33;18.40;99.90
51793;DHT22;37850;53.178;6.376;2023-08-21T07:50:59;18.60;99.90
51793;DHT22;37850;53.178;6.376;2023-08-21T07:53:26;18.70;99.90
51793;DHT22;37850;53.178;6.376;2023-08-21T07:55:52;18.90;99.90
51793;DHT22;37850;53.178;6.376;2023-08-21T07:58:18;19.00;99.90
51793;DHT22;37850;53.178;6.376;2023-08-21T08:00:44;19.20;99.90
51793;DHT22;37850;53.178;6.376;2023-08-21T08:03:10;19.30;99.90
51793;DHT22;37850;53.178;6.376;2023-08-21T08:05:36;19.50;99.90
51793;DHT22;37850;53.178;6.376;2023-08-21T08:08:03;19.60;99.90
51793;DHT22;37850;53.178;6.376;2023-08-21T08:10:29;19.80;99.90
51793;DHT22;37850;53.178;6.376;2023-08-21T08:12:54;19.90;99.90
51793;DHT22;37850;53.178;6.376;2023-08-21T08:15:22;20.00;99.90
51793;DHT22;37850;53.178;6.376;2023-08-21T08:17:48;20.10;99.90
51793;DHT22;37850;53.178;6.376;2023-08-21T08:20:19;20.20;99.90
51793;DHT22;37850;53.178;6.376;2023-08-21T08:22:45;20.30;99.90
51793;DHT22;37850;53.178;6.376;2023-08-21T08:25:10;20.30;99.90
51793;DHT22;37850;53.178;6.376;2023-08-21T08:27:36;20.40;99.90
51793;DHT22;37850;53.178;6.376;2023-08-21T08:30:03;20.50;99.90
51793;DHT22;37850;53.178;6.376;2023-08-21T08:32:29;20.60;99.90
51793;DHT22;37850;53.178;6.376;2023-08-21T08:34:58;20.70;99.90
51793;DHT22;37850;53.178;6.376;2023-08-21T08:37:24;20.80;99.90
51793;DHT22;37850;53.178;6.376;2023-08-21T08:39:50;20.90;99.90
51793;DHT22;37850;53.178;6.376;2023-08-21T08:42:16;21.10;99.90
51793;DHT22;37850;53.178;6.376;2023-08-21T08:44:43;21.10;99.90
51793;DHT22;37850;53.178;6.376;2023-08-21T08:47:11;21.20;99.90
51793;DHT22;37850;53.178;6.376;2023-08-21T08:49:38;21.30;99.90
51793;DHT22;37850;53.178;6.376;2023-08-21T08:52:04;21.30;99.90
51793;DHT22;37850;53.178;6.376;2023-08-21T08:54:31;21.40;99.90
51793;DHT22;37850;53.178;6.376;2023-08-21T08:56:57;21.50;99.90
51793;DHT22;37850;53.178;6.376;2023-08-21T08:59:23;21.60;99.90
51793;DHT22;37850;53.178;6.376;2023-08-21T09:01:49;21.60;99.90
51793;DHT22;37850;53.178;6.376;2023-08-21T09:04:15;21.80;99.90
51793;DHT22;37850;53.178;6.376;2023-08-21T09:06:41;21.80;99.90
51793;DHT22;37850;53.178;6.376;2023-08-21T09:09:07;21.90;99.90
51793;DHT22;37850;53.178;6.376;2023-08-21T09:11:33;22.00;99.90
51793;DHT22;37850;53.178;6.376;2023-08-21T09:14:02;22.10;99.90
51793;DHT22;37850;53.178;6.376;2023-08-21T09:16:28;22.20;99.90
51793;DHT22;37850;53.178;6.376;2023-08-21T09:18:56;22.30;99.90
51793;DHT22;37850;53.178;6.376;2023-08-21T09:21:24;22.40;99.90
51793;DHT22;37850;53.178;6.376;2023-08-21T09:23:57;22.40;99.90
51793;DHT22;37850;53.178;6.376;2023-08-21T09:26:23;22.50;99.90
51793;DHT22;37850;53.178;6.376;2023-08-21T09:28:50;22.60;99.90
51793;DHT22;37850;53.178;6.376;2023-08-21T09:31:22;22.60;99.90
51793;DHT22;37850;53.178;6.376;2023-08-21T09:34:01;22.60;99.90
51793;DHT22;37850;53.178;6.376;2023-08-21T09:36:30;22.80;99.90
51793;DHT22;37850;53.178;6.376;2023-08-21T09:38:56;22.80;99.90
51793;DHT22;37850;53.178;6.376;2023-08-21T09:41:23;22.90;99.90
51793;DHT22;37850;53.178;6.376;2023-08-21T09:43:49;22.90;99.90
51793;DHT22;37850;53.178;6.376;2023-08-21T09:46:33;22.90;99.90
51793;DHT22;37850;53.178;6.376;2023-08-21T09:48:59;23.00;99.90
51793;DHT22;37850;53.178;6.376;2023-08-21T09:51:28;23.10;99.90
51793;DHT22;37850;53.178;6.376;2023-08-21T09:53:56;23.00;99.90
51793;DHT22;37850;53.178;6.376;2023-08-21T09:56:22;23.10;99.90
51793;DHT22;37850;53.178;6.376;2023-08-21T09:58:48;23.10;99.90
51793;DHT22;37850;53.178;6.376;2023-08-21T10:01:15;23.20;99.90
51793;DHT22;37850;53.178;6.376;2023-08-21T10:03:42;23.20;99.90
51793;DHT22;37850;53.178;6.376;2023-08-21T10:06:16;23.30;99.90
51793;DHT22;37850;53.178;6.376;2023-08-21T10:08:46;23.30;99.90
51793;DHT22;37850;53.178;6.376;2023-08-21T10:11:12;23.40;99.90
51793;DHT22;37850;53.178;6.376;2023-08-21T10:13:40;23.50;99.90
51793;DHT22;37850;53.178;6.376;2023-08-21T10:16:06;23.50;99.90
51793;DHT22;37850;53.178;6.376;2023-08-21T10:18:34;23.60;99.90
51793;DHT22;37850;53.178;6.376;2023-08-21T10:21:30;23.70;99.90
51793;DHT22;37850;53.178;6.376;2023-08-21T10:24:00;23.70;99.90
51793;DHT22;37850;53.178;6.376;2023-08-21T10:26:26;23.80;99.90
51793;DHT22;37850;53.178;6.376;2023-08-21T10:29:02;23.80;99.90
51793;DHT22;37850;53.178;6.376;2023-08-21T10:31:32;23.80;99.90
51793;DHT22;37850;53.178;6.376;2023-08-21T10:33:59;23.90;99.90
51793;DHT22;37850;53.178;6.376;2023-08-21T10:41:39;24.00;99.90
51793;DHT22;37850;53.178;6.376;2023-08-21T10:44:06;24.00;99.90
51793;DHT22;37850;53.178;6.376;2023-08-21T10:46:51;24.00;99.90
51793;DHT22;37850;53.178;6.376;2023-08-21T10:49:17;24.10;99.90
51793;DHT22;37850;53.178;6.376;2023-08-21T10:51:44;24.10;99.90
51793;DHT22;37850;53.178;6.376;2023-08-21T10:54:13;24.10;99.90
51793;DHT22;37850;53.178;6.376;2023-08-21T10:56:39;24.20;99.90
51793;DHT22;37850;53.178;6.376;2023-08-21T10:59:05;24.20;99.90
51793;DHT22;37850;53.178;6.376;2023-08-21T11:01:44;24.20;99.90
51793;DHT22;37850;53.178;6.376;2023-08-21T11:04:11;24.30;99.90
51793;DHT22;37850;53.178;6.376;2023-08-21T11:06:38;24.30;99.90
51793;DHT22;37850;53.178;6.376;2023-08-21T11:09:05;24.40;99.90
51793;DHT22;37850;53.178;6.376;2023-08-21T11:11:31;24.40;99.90
51793;DHT22;37850;53.178;6.376;2023-08-21T11:13:57;24.40;99.90
51793;DHT22;37850;53.178;6.376;2023-08-21T11:16:24;24.60;99.90
51793;DHT22;37850;53.178;6.376;2023-08-21T11:18:51;24.60;99.90
51793;DHT22;37850;53.178;6.376;2023-08-21T11:21:16;24.60;99.90
51793;DHT22;37850;53.178;6.376;2023-08-21T11:23:42;24.60;99.90
51793;DHT22;37850;53.178;6.376;2023-08-21T11:26:11;24.60;99.90
51793;DHT22;37850;53.178;6.376;2023-08-21T11:28:38;24.70;99.90
51793;DHT22;37850;53.178;6.376;2023-08-21T11:31:06;24.70;99.90
51793;DHT22;37850;53.178;6.376;2023-08-21T11:33:32;24.80;99.90
51793;DHT22;37850;53.178;6.376;2023-08-21T11:35:59;24.80;99.90
51793;DHT22;37850;53.178;6.376;2023-08-21T11:38:26;24.90;99.90
51793;DHT22;37850;53.178;6.376;2023-08-21T11:40:53;24.90;99.90
51793;DHT22;37850;53.178;6.376;2023-08-21T11:43:19;25.00;99.90
51793;DHT22;37850;53.178;6.376;2023-08-21T11:45:48;25.00;99.90
51793;DHT22;37850;53.178;6.376;2023-08-21T11:48:14;25.00;99.90
51793;DHT22;37850;53.178;6.376;2023-08-21T11:50:40;25.00;99.90
51793;DHT22;37850;53.178;6.376;2023-08-21T11:53:06;25.10;99.90
51793;DHT22;37850;53.178;6.376;2023-08-21T11:55:31;25.20;99.90
51793;DHT22;37850;53.178;6.376;2023-08-21T11:57:57;25.20;99.90
51793;DHT22;37850;53.178;6.376;2023-08-21T12:00:29;25.20;99.90
51793;DHT22;37850;53.178;6.376;2023-08-21T12:02:58;25.20;99.90
51793;DHT22;37850;53.178;6.376;2023-08-21T12:05:24;25.20;99.90
51793;DHT22;37850;53.178;6.376;2023-08-21T12:07:50;25.20;99.90
51793;DHT22;37850;53.178;6.376;2023-08-21T12:10:26;25.30;99.90
51793;DHT22;37850;53.178;6.376;2023-08-21T12:12:52;25.30;99.90
51793;DHT22;37850;53.178;6.376;2023-08-21T12:15:19;25.30;99.90
51793;DHT22;37850;53.178;6.376;2023-08-21T12:17:45;25.40;99.90
51793;DHT22;37850;53.178;6.376;2023-08-21T12:20:11;25.40;99.90
51793;DHT22;37850;53.178;6.376;2023-08-21T12:22:40;25.40;99.90
51793;DHT22;37850;53.178;6.376;2023-08-21T12:25:08;25.40;99.90
51793;DHT22;37850;53.178;6.376;2023-08-21T12:27:35;25.50;99.90
51793;DHT22;37850;53.178;6.376;2023-08-21T12:30:01;25.50;99.90
51793;DHT22;37850;53.178;6.376;2023-08-21T12:32:27;25.50;99.90
51793;DHT22;37850;53.178;6.376;2023-08-21T12:34:53;25.50;99.90
51793;DHT22;37850;53.178;6.376;2023-08-21T12:37:18;25.50;99.90
51793;DHT22;37850;53.178;6.376;2023-08-21T12:39:45;25.60;99.90
51793;DHT22;37850;53.178;6.376;2023-08-21T12:42:10;25.60;99.90
51793;DHT22;37850;53.178;6.376;2023-08-21T12:44:36;25.60;99.90
51793;DHT22;37850;53.178;6.376;2023-08-21T12:47:02;25.60;99.90
51793;DHT22;37850;53.178;6.376;2023-08-21T12:49:28;25.60;99.90
51793;DHT22;37850;53.178;6.376;2023-08-21T12:51:54;25.60;99.90
51793;DHT22;37850;53.178;6.376;2023-08-21T12:54:21;25.60;99.90
51793;DHT22;37850;53.178;6.376;2023-08-21T12:56:46;25.60;99.90
51793;DHT22;37850;53.178;6.376;2023-08-21T12:59:13;25.70;99.90
51793;DHT22;37850;53.178;6.376;2023-08-21T13:01:39;25.70;99.90
51793;DHT22;37850;53.178;6.376;2023-08-21T13:04:05;25.70;99.90
51793;DHT22;37850;53.178;6.376;2023-08-21T13:06:31;25.70;99.90
51793;DHT22;37850;53.178;6.376;2023-08-21T13:08:57;25.70;99.90
51793;DHT22;37850;53.178;6.376;2023-08-21T13:11:23;25.70;99.90
51793;DHT22;37850;53.178;6.376;2023-08-21T13:13:49;25.70;99.90
51793;DHT22;37850;53.178;6.376;2023-08-21T13:16:14;25.60;99.90
51793;DHT22;37850;53.178;6.376;2023-08-21T13:18:40;25.60;99.90
51793;DHT22;37850;53.178;6.376;2023-08-21T13:21:06;25.60;99.90
51793;DHT22;37850;53.178;6.376;2023-08-21T13:23:32;25.70;99.90
51793;DHT22;37850;53.178;6.376;2023-08-21T13:25:59;25.80;99.90
51793;DHT22;37850;53.178;6.376;2023-08-21T13:28:26;25.80;99.90
51793;DHT22;37850;53.178;6.376;2023-08-21T13:30:52;25.80;99.90
51793;DHT22;37850;53.178;6.376;2023-08-21T13:33:23;25.80;99.90
51793;DHT22;37850;53.178;6.376;2023-08-21T13:35:49;25.80;99.90
51793;DHT22;37850;53.178;6.376;2023-08-21T13:38:15;25.90;99.90
51793;DHT22;37850;53.178;6.376;2023-08-21T13:40:44;25.90;99.90
51793;DHT22;37850;53.178;6.376;2023-08-21T13:43:10;25.90;99.90
51793;DHT22;37850;53.178;6.376;2023-08-21T13:45:38;25.90;99.90
51793;DHT22;37850;53.178;6.376;2023-08-21T13:48:05;25.80;99.90
51793;DHT22;37850;53.178;6.376;2023-08-21T13:50:31;25.70;99.90
51793;DHT22;37850;53.178;6.376;2023-08-21T13:52:57;25.70;99.90
51793;DHT22;37850;53.178;6.376;2023-08-21T13:55:23;25.70;99.90
51793;DHT22;37850;53.178;6.376;2023-08-21T13:57:49;25.70;99.90
51793;DHT22;37850;53.178;6.376;2023-08-21T14:00:14;25.70;99.90
51793;DHT22;37850;53.178;6.376;2023-08-21T14:02:43;25.70;99.90
51793;DHT22;37850;53.178;6.376;2023-08-21T14:05:10;25.80;99.90
51793;DHT22;37850;53.178;6.376;2023-08-21T14:07:36;25.80;99.90
51793;DHT22;37850;53.178;6.376;2023-08-21T14:10:03;25.80;99.90
51793;DHT22;37850;53.178;6.376;2023-08-21T14:12:32;25.80;99.90
51793;DHT22;37850;53.178;6.376;2023-08-21T14:14:59;25.90;99.90
51793;DHT22;37850;53.178;6.376;2023-08-21T14:17:25;25.90;99.90
51793;DHT22;37850;53.178;6.376;2023-08-21T14:19:51;25.90;99.90
51793;DHT22;37850;53.178;6.376;2023-08-21T14:22:17;25.90;99.90
51793;DHT22;37850;53.178;6.376;2023-08-21T14:24:42;25.90;99.90
51793;DHT22;37850;53.178;6.376;2023-08-21T14:27:08;25.80;99.90
51793;DHT22;37850;53.178;6.376;2023-08-21T14:29:34;25.80;99.90
51793;DHT22;37850;53.178;6.376;2023-08-21T14:32:00;25.70;99.90
51793;DHT22;37850;53.178;6.376;2023-08-21T14:34:26;25.70;99.90
51793;DHT22;37850;53.178;6.376;2023-08-21T14:36:53;25.70;99.90
51793;DHT22;37850;53.178;6.376;2023-08-21T14:39:24;25.70;99.90
51793;DHT22;37850;53.178;6.376;2023-08-21T14:41:59;25.70;99.90
51793;DHT22;37850;53.178;6.376;2023-08-21T14:44:25;25.70;99.90
51793;DHT22;37850;53.178;6.376;2023-08-21T14:46:55;25.70;99.90
51793;DHT22;37850;53.178;6.376;2023-08-21T14:49:22;25.80;99.90
51793;DHT22;37850;53.178;6.376;2023-08-21T14:51:48;25.70;99.90
51793;DHT22;37850;53.178;6.376;2023-08-21T14:54:13;25.70;99.90
51793;DHT22;37850;53.178;6.376;2023-08-21T14:56:39;25.70;99.90
51793;DHT22;37850;53.178;6.376;2023-08-21T14:59:05;25.60;99.90
51793;DHT22;37850;53.178;6.376;2023-08-21T15:01:31;25.60;99.90
51793;DHT22;37850;53.178;6.376;2023-08-21T15:03:57;25.70;99.90
51793;DHT22;37850;53.178;6.376;2023-08-21T15:06:22;25.60;99.90
51793;DHT22;37850;53.178;6.376;2023-08-21T15:08:48;25.60;99.90
51793;DHT22;37850;53.178;6.376;2023-08-21T15:11:14;25.70;99.90
51793;DHT22;37850;53.178;6.376;2023-08-21T15:13:40;25.70;99.90
51793;DHT22;37850;53.178;6.376;2023-08-21T15:16:06;25.70;99.90
51793;DHT22;37850;53.178;6.376;2023-08-21T15:18:32;25.60;99.90
51793;DHT22;37850;53.178;6.376;2023-08-21T15:20:58;25.60;99.90
51793;DHT22;37850;53.178;6.376;2023-08-21T15:23:28;25.60;99.90
51793;DHT22;37850;53.178;6.376;2023-08-21T15:25:53;25.60;99.90
51793;DHT22;37850;53.178;6.376;2023-08-21T15:28:19;25.60;99.90
51793;DHT22;37850;53.178;6.376;2023-08-21T15:30:45;25.60;99.90
51793;DHT22;37850;53.178;6.376;2023-08-21T15:33:11;25.60;99.90
51793;DHT22;37850;53.178;6.376;2023-08-21T15:35:36;25.60;99.90
51793;DHT22;37850;53.178;6.376;2023-08-21T15:38:02;25.60;99.90
51793;DHT22;37850;53.178;6.376;2023-08-21T15:40:29;25.60;99.90